Thursday, March 21, 2019, 4:38 PM EDT
Back to Local

KCQX, Chatham Municipal Airport

Location: Chatham, MA, United States Lat: 41.683
Local Time: 4:38 PM EDT (20:38 GMT) Lon: -70
Time Zone: US/Eastern Elev: 68 ft

Show me the last for .
Show Decoded

2019-03-21 15:52 METAR KCQX 211952Z AUTO 12007KT 10SM CLR 06/01 A3012 RMK AO2 SLP200 T00560011 =
2019-03-21 14:52 METAR KCQX 211852Z AUTO 13008G16KT 10SM CLR 06/01 A3014 RMK AO2 SLP209 T00610011
                 =
2019-03-21 13:52 METAR KCQX 211752Z AUTO 13011G18KT 10SM CLR 07/M01 A3015 RMK AO2 SLP212
                 T00671006 10078 20044 58028 =
2019-03-21 12:52 METAR KCQX 211652Z AUTO 15012G17KT 10SM CLR 07/M02 A3018 RMK AO2 SLP222
                 T00671022 =
2019-03-21 11:52 METAR KCQX 211552Z AUTO 14008G19KT 10SM CLR 07/M01 A3021 RMK AO2 SLP232
                 T00721006 =
2019-03-21 10:52 METAR KCQX 211452Z AUTO 13010G18KT 100V160 10SM BKN065 07/01 A3024 RMK AO2
                 SLP240 T00670011 56017 =
2019-03-21 09:52 METAR KCQX 211352Z AUTO 12010KT 10SM CLR 06/01 A3025 RMK AO2 SLP246 T00610011 =
2019-03-21 08:52 METAR KCQX 211252Z AUTO 12009G15KT 10SM CLR 05/00 A3025 RMK AO2 SLP246 T00500000
                 =
2019-03-21 07:52 METAR KCQX 211152Z AUTO 14006KT 10SM CLR 04/M01 A3029 RMK AO2 SLP258 T00441011
                 10044 20017 56003 =
2019-03-21 06:52 METAR KCQX 211052Z AUTO 14004KT 10SM CLR 03/M01 A3030 RMK AO2 SLP261 T00281011 =
2019-03-21 05:52 METAR KCQX 210952Z AUTO 15006KT 10SM CLR 02/M01 A3028 RMK AO2 SLP256 T00221011 =
2019-03-21 04:52 METAR KCQX 210852Z AUTO 17005KT 10SM CLR 02/M01 A3030 RMK AO2 SLP261 T00221011
                 58013 =
2019-03-21 03:52 METAR KCQX 210752Z AUTO 20003KT 10SM CLR 02/M01 A3031 RMK AO2 SLP266 T00221011 =
2019-03-21 02:52 METAR KCQX 210652Z AUTO 21003KT 10SM CLR 02/M01 A3032 RMK AO2 SLP270 T00221011 =
2019-03-21 01:52 METAR KCQX 210552Z AUTO 18004KT 10SM CLR 03/M02 A3033 RMK AO2 SLP274 T00331017
                 10039 20028 58007 =
2019-03-21 00:52 METAR KCQX 210452Z AUTO 20005KT 10SM CLR 03/M02 A3034 RMK AO2 SLP277 T00331017
                 400781028 =
2019-03-20 23:52 METAR KCQX 210352Z AUTO VRB06KT 10SM CLR 04/M01 A3035 RMK AO2 SLP280 T00391011 =
2019-03-20 22:52 METAR KCQX 210252Z AUTO 21007G15KT 10SM CLR 04/M01 A3035 RMK AO2 SLP281
                 T00391011 58002 =
2019-03-20 21:52 METAR KCQX 210152Z AUTO 21009KT 10SM CLR 03/M02 A3036 RMK AO2 SLP284 T00331017 =
2019-03-20 20:52 METAR KCQX 210052Z AUTO 21008KT 10SM CLR 03/M02 A3037 RMK AO2 SLP285 T00331017 =
2019-03-20 19:52 METAR KCQX 202352Z AUTO 21005KT 10SM CLR 03/M02 A3036 RMK AO2 SLP282 T00331022
                 10072 20033 55003 =
2019-03-20 18:52 METAR KCQX 202252Z AUTO 21008KT 10SM CLR 04/M02 A3036 RMK AO2 SLP281 T00391022 =
2019-03-20 17:52 METAR KCQX 202152Z AUTO 21009G16KT 10SM CLR 05/M04 A3036 RMK AO2 SLP281
                 T00501044 =
2019-03-20 16:52 METAR KCQX 202052Z AUTO VRB06KT 10SM CLR 06/M03 A3037 RMK AO2 SLP285 T00561028
                 56009 =

Support USWX by starting your Amazon purchase here.